sensor_id;sensor_type;location;lat;lon;timestamp;pressure;altitude;pressure_sealevel;temperature;humidity
10718;BME280;13513;42.700;23.124;2022-08-16T00:00:53;92547.15;;;21.73;73.71
10718;BME280;13513;42.700;23.124;2022-08-16T00:03:25;92541.03;;;21.93;71.79
10718;BME280;13513;42.700;23.124;2022-08-16T00:05:56;92544.17;;;22.03;71.44
10718;BME280;13513;42.700;23.124;2022-08-16T00:08:27;92540.31;;;22.13;70.82
10718;BME280;13513;42.700;23.124;2022-08-16T00:10:58;92535.06;;;22.16;70.52
10718;BME280;13513;42.700;23.124;2022-08-16T00:13:29;92538.49;;;22.11;70.40
10718;BME280;13513;42.700;23.124;2022-08-16T00:16:00;92543.01;;;22.13;69.62
10718;BME280;13513;42.700;23.124;2022-08-16T00:18:30;92536.63;;;22.17;69.31
10718;BME280;13513;42.700;23.124;2022-08-16T00:21:01;92534.73;;;22.18;69.04
10718;BME280;13513;42.700;23.124;2022-08-16T00:23:32;92538.45;;;22.19;69.39
10718;BME280;13513;42.700;23.124;2022-08-16T00:26:02;92542.31;;;22.10;69.86
10718;BME280;13513;42.700;23.124;2022-08-16T00:28:33;92543.37;;;22.03;70.21
10718;BME280;13513;42.700;23.124;2022-08-16T00:31:04;92541.45;;;21.89;75.39
10718;BME280;13513;42.700;23.124;2022-08-16T00:33:35;92543.30;;;21.36;79.49
10718;BME280;13513;42.700;23.124;2022-08-16T00:39:00;92551.04;;;20.55;86.50
10718;BME280;13513;42.700;23.124;2022-08-16T00:41:30;92559.75;;;20.16;90.12
10718;BME280;13513;42.700;23.124;2022-08-16T00:44:04;92559.16;;;19.99;91.68
10718;BME280;13513;42.700;23.124;2022-08-16T00:46:38;92558.02;;;19.92;92.73
10718;BME280;13513;42.700;23.124;2022-08-16T00:49:09;92564.75;;;19.72;94.99
10718;BME280;13513;42.700;23.124;2022-08-16T00:51:42;92563.02;;;19.56;96.43
10718;BME280;13513;42.700;23.124;2022-08-16T00:54:12;92564.67;;;19.55;96.03
10718;BME280;13513;42.700;23.124;2022-08-16T00:56:45;92560.27;;;19.59;95.78
10718;BME280;13513;42.700;23.124;2022-08-16T00:59:17;92569.88;;;19.60;96.17
10718;BME280;13513;42.700;23.124;2022-08-16T01:01:48;92570.88;;;19.64;97.22
10718;BME280;13513;42.700;23.124;2022-08-16T01:04:20;92571.37;;;19.55;97.87
10718;BME280;13513;42.700;23.124;2022-08-16T01:06:51;92571.23;;;19.40;99.05
10718;BME280;13513;42.700;23.124;2022-08-16T01:09:22;92577.41;;;19.30;99.82
10718;BME280;13513;42.700;23.124;2022-08-16T01:11:53;92580.39;;;19.28;100.00
10718;BME280;13513;42.700;23.124;2022-08-16T01:14:29;92579.03;;;19.17;100.00
10718;BME280;13513;42.700;23.124;2022-08-16T01:17:00;92582.11;;;19.24;100.00
10718;BME280;13513;42.700;23.124;2022-08-16T01:19:34;92581.15;;;19.40;98.18
10718;BME280;13513;42.700;23.124;2022-08-16T01:22:26;92589.30;;;19.65;96.79
10718;BME280;13513;42.700;23.124;2022-08-16T01:24:57;92586.51;;;19.71;97.11
10718;BME280;13513;42.700;23.124;2022-08-16T01:27:29;92590.50;;;19.82;95.76
10718;BME280;13513;42.700;23.124;2022-08-16T01:32:39;92602.91;;;19.69;96.90
10718;BME280;13513;42.700;23.124;2022-08-16T01:35:32;92604.50;;;19.59;97.89
10718;BME280;13513;42.700;23.124;2022-08-16T01:37:49;92599.56;;;19.63;97.53
10718;BME280;13513;42.700;23.124;2022-08-16T01:40:22;92601.81;;;19.59;97.77
10718;BME280;13513;42.700;23.124;2022-08-16T01:42:50;92606.07;;;19.60;97.58
10718;BME280;13513;42.700;23.124;2022-08-16T01:45:21;92605.61;;;19.58;98.25
10718;BME280;13513;42.700;23.124;2022-08-16T01:47:52;92610.31;;;19.52;98.38
10718;BME280;13513;42.700;23.124;2022-08-16T01:50:23;92608.36;;;19.55;97.62
10718;BME280;13513;42.700;23.124;2022-08-16T01:52:54;92603.74;;;19.67;97.06
10718;BME280;13513;42.700;23.124;2022-08-16T01:55:24;92607.05;;;19.84;96.17
10718;BME280;13513;42.700;23.124;2022-08-16T01:57:54;92617.40;;;19.88;95.76
10718;BME280;13513;42.700;23.124;2022-08-16T02:00:26;92615.53;;;19.97;95.22
10718;BME280;13513;42.700;23.124;2022-08-16T02:02:56;92631.00;;;19.91;95.39
10718;BME280;13513;42.700;23.124;2022-08-16T02:05:28;92632.10;;;19.79;96.51
10718;BME280;13513;42.700;23.124;2022-08-16T02:07:58;92652.89;;;19.73;97.16
10718;BME280;13513;42.700;23.124;2022-08-16T02:10:29;92659.97;;;19.69;98.58
10718;BME280;13513;42.700;23.124;2022-08-16T02:13:00;92663.07;;;19.54;99.89
10718;BME280;13513;42.700;23.124;2022-08-16T02:15:33;92658.19;;;19.34;100.00
10718;BME280;13513;42.700;23.124;2022-08-16T02:18:04;92663.38;;;19.31;100.00
10718;BME280;13513;42.700;23.124;2022-08-16T02:20:37;92667.64;;;19.32;100.00
10718;BME280;13513;42.700;23.124;2022-08-16T02:23:08;92666.86;;;19.31;100.00
10718;BME280;13513;42.700;23.124;2022-08-16T02:25:40;92670.38;;;19.29;100.00
10718;BME280;13513;42.700;23.124;2022-08-16T02:28:11;92674.47;;;19.27;100.00
10718;BME280;13513;42.700;23.124;2022-08-16T02:30:42;92672.56;;;19.38;100.00
10718;BME280;13513;42.700;23.124;2022-08-16T02:33:13;92681.23;;;19.35;100.00
10718;BME280;13513;42.700;23.124;2022-08-16T02:35:44;92689.38;;;19.30;100.00
10718;BME280;13513;42.700;23.124;2022-08-16T02:38:15;92685.19;;;19.27;100.00
10718;BME280;13513;42.700;23.124;2022-08-16T02:40:46;92688.84;;;19.42;100.00
10718;BME280;13513;42.700;23.124;2022-08-16T02:43:17;92683.11;;;19.46;100.00
10718;BME280;13513;42.700;23.124;2022-08-16T02:45:48;92684.88;;;19.50;100.00
10718;BME280;13513;42.700;23.124;2022-08-16T02:48:17;92683.70;;;19.54;100.00
10718;BME280;13513;42.700;23.124;2022-08-16T02:50:49;92684.07;;;19.61;100.00
10718;BME280;13513;42.700;23.124;2022-08-16T02:53:19;92681.70;;;19.59;100.00
10718;BME280;13513;42.700;23.124;2022-08-16T02:55:51;92683.87;;;19.57;100.00
10718;BME280;13513;42.700;23.124;2022-08-16T02:58:22;92676.20;;;19.64;100.00
10718;BME280;13513;42.700;23.124;2022-08-16T03:00:53;92675.53;;;19.59;100.00
10718;BME280;13513;42.700;23.124;2022-08-16T03:03:25;92669.56;;;19.62;100.00
10718;BME280;13513;42.700;23.124;2022-08-16T03:05:56;92660.55;;;19.58;100.00
10718;BME280;13513;42.700;23.124;2022-08-16T03:08:27;92656.23;;;19.59;100.00
10718;BME280;13513;42.700;23.124;2022-08-16T03:10:58;92654.66;;;19.58;100.00
10718;BME280;13513;42.700;23.124;2022-08-16T03:13:28;92650.36;;;19.68;100.00
10718;BME280;13513;42.700;23.124;2022-08-16T03:15:59;92646.64;;;19.67;100.00
10718;BME280;13513;42.700;23.124;2022-08-16T03:18:30;92641.72;;;19.60;100.00
10718;BME280;13513;42.700;23.124;2022-08-16T03:21:01;92634.72;;;19.62;100.00
10718;BME280;13513;42.700;23.124;2022-08-16T03:23:32;92634.48;;;19.61;100.00
10718;BME280;13513;42.700;23.124;2022-08-16T03:26:03;92641.72;;;19.60;100.00
10718;BME280;13513;42.700;23.124;2022-08-16T03:28:33;92649.60;;;19.57;100.00
10718;BME280;13513;42.700;23.124;2022-08-16T03:31:07;92652.52;;;19.47;100.00
10718;BME280;13513;42.700;23.124;2022-08-16T03:33:38;92653.63;;;19.46;100.00
10718;BME280;13513;42.700;23.124;2022-08-16T03:36:08;92662.17;;;19.37;100.00
10718;BME280;13513;42.700;23.124;2022-08-16T03:38:39;92661.58;;;19.15;100.00
10718;BME280;13513;42.700;23.124;2022-08-16T03:41:10;92660.92;;;18.99;100.00
10718;BME280;13513;42.700;23.124;2022-08-16T03:43:41;92656.09;;;18.98;100.00
10718;BME280;13513;42.700;23.124;2022-08-16T03:46:13;92662.20;;;19.01;100.00
10718;BME280;13513;42.700;23.124;2022-08-16T03:48:43;92660.29;;;19.02;100.00
10718;BME280;13513;42.700;23.124;2022-08-16T03:51:14;92651.13;;;19.05;100.00
10718;BME280;13513;42.700;23.124;2022-08-16T03:53:46;92651.13;;;19.16;100.00
10718;BME280;13513;42.700;23.124;2022-08-16T03:56:15;92649.66;;;19.21;100.00
10718;BME280;13513;42.700;23.124;2022-08-16T03:58:47;92654.44;;;19.24;100.00
10718;BME280;13513;42.700;23.124;2022-08-16T04:01:19;92653.84;;;19.27;100.00
10718;BME280;13513;42.700;23.124;2022-08-16T04:03:52;92649.98;;;19.31;100.00
10718;BME280;13513;42.700;23.124;2022-08-16T04:06:22;92646.20;;;19.32;100.00
10718;BME280;13513;42.700;23.124;2022-08-16T04:08:56;92639.64;;;19.27;100.00
10718;BME280;13513;42.700;23.124;2022-08-16T04:11:26;92641.62;;;19.21;100.00
10718;BME280;13513;42.700;23.124;2022-08-16T04:13:57;92641.98;;;19.17;100.00
10718;BME280;13513;42.700;23.124;2022-08-16T04:16:28;92644.23;;;19.13;100.00
10718;BME280;13513;42.700;23.124;2022-08-16T04:18:58;92631.77;;;19.08;100.00
10718;BME280;13513;42.700;23.124;2022-08-16T04:21:29;92629.99;;;19.04;100.00
10718;BME280;13513;42.700;23.124;2022-08-16T04:24:01;92634.92;;;19.21;100.00
10718;BME280;13513;42.700;23.124;2022-08-16T04:26:31;92634.73;;;19.51;100.00
10718;BME280;13513;42.700;23.124;2022-08-16T04:29:02;92634.39;;;19.75;100.00
10718;BME280;13513;42.700;23.124;2022-08-16T04:31:33;92625.03;;;20.03;100.00
10718;BME280;13513;42.700;23.124;2022-08-16T04:34:03;92623.09;;;20.34;100.00
10718;BME280;13513;42.700;23.124;2022-08-16T04:36:34;92625.67;;;20.56;99.95
10718;BME280;13513;42.700;23.124;2022-08-16T04:39:04;92624.12;;;20.80;96.97
10718;BME280;13513;42.700;23.124;2022-08-16T04:41:35;92623.75;;;21.10;96.91
10718;BME280;13513;42.700;23.124;2022-08-16T04:44:06;92618.73;;;21.31;98.21
10718;BME280;13513;42.700;23.124;2022-08-16T04:46:37;92610.80;;;21.52;96.62
10718;BME280;13513;42.700;23.124;2022-08-16T04:49:08;92607.34;;;21.74;90.11
10718;BME280;13513;42.700;23.124;2022-08-16T04:51:38;92609.88;;;22.17;84.35
10718;BME280;13513;42.700;23.124;2022-08-16T04:54:10;92604.21;;;22.68;83.85
10718;BME280;13513;42.700;23.124;2022-08-16T04:56:41;92613.88;;;23.10;78.72
10718;BME280;13513;42.700;23.124;2022-08-16T04:59:12;92623.30;;;23.57;80.45
10718;BME280;13513;42.700;23.124;2022-08-16T05:01:42;92626.47;;;23.98;78.77
10718;BME280;13513;42.700;23.124;2022-08-16T05:04:13;92623.70;;;24.36;75.32
10718;BME280;13513;42.700;23.124;2022-08-16T05:06:44;92630.20;;;24.35;73.40
10718;BME280;13513;42.700;23.124;2022-08-16T05:09:15;92632.45;;;24.39;74.05
10718;BME280;13513;42.700;23.124;2022-08-16T05:11:48;92631.12;;;24.21;71.80
10718;BME280;13513;42.700;23.124;2022-08-16T05:14:19;92629.98;;;24.22;73.51
10718;BME280;13513;42.700;23.124;2022-08-16T05:16:50;92636.95;;;24.59;71.47
10718;BME280;13513;42.700;23.124;2022-08-16T05:19:21;92635.02;;;25.08;68.77
10718;BME280;13513;42.700;23.124;2022-08-16T05:21:52;92639.46;;;25.40;67.30
10718;BME280;13513;42.700;23.124;2022-08-16T05:24:23;92637.86;;;25.94;63.60
10718;BME280;13513;42.700;23.124;2022-08-16T05:26:54;92630.69;;;26.23;61.93
10718;BME280;13513;42.700;23.124;2022-08-16T05:29:24;92630.55;;;26.63;59.28
10718;BME280;13513;42.700;23.124;2022-08-16T05:31:55;92625.18;;;27.07;57.79
10718;BME280;13513;42.700;23.124;2022-08-16T05:34:27;92625.08;;;27.03;57.48
10718;BME280;13513;42.700;23.124;2022-08-16T05:36:58;92624.30;;;27.37;56.43
10718;BME280;13513;42.700;23.124;2022-08-16T05:39:31;92622.03;;;27.58;55.40
10718;BME280;13513;42.700;23.124;2022-08-16T05:42:04;92627.67;;;27.69;52.99
10718;BME280;13513;42.700;23.124;2022-08-16T05:44:34;92626.92;;;28.00;52.56
10718;BME280;13513;42.700;23.124;2022-08-16T05:47:05;92621.55;;;28.13;51.58
10718;BME280;13513;42.700;23.124;2022-08-16T05:49:36;92629.60;;;28.19;50.66
10718;BME280;13513;42.700;23.124;2022-08-16T05:52:06;92634.75;;;28.69;49.22
10718;BME280;13513;42.700;23.124;2022-08-16T05:54:37;92631.72;;;28.61;45.10
10718;BME280;13513;42.700;23.124;2022-08-16T05:57:08;92632.42;;;28.36;46.04
10718;BME280;13513;42.700;23.124;2022-08-16T05:59:37;92630.18;;;27.58;47.82
10718;BME280;13513;42.700;23.124;2022-08-16T06:02:09;92633.49;;;27.23;48.97
10718;BME280;13513;42.700;23.124;2022-08-16T06:04:39;92634.04;;;27.13;50.22
10718;BME280;13513;42.700;23.124;2022-08-16T06:07:10;92639.08;;;27.30;49.50
10718;BME280;13513;42.700;23.124;2022-08-16T06:09:42;92630.92;;;27.21;48.69
10718;BME280;13513;42.700;23.124;2022-08-16T06:12:13;92631.45;;;27.74;48.14
10718;BME280;13513;42.700;23.124;2022-08-16T06:14:44;92640.24;;;27.58;47.27
10718;BME280;13513;42.700;23.124;2022-08-16T06:17:15;92640.09;;;27.60;47.28
10718;BME280;13513;42.700;23.124;2022-08-16T06:19:46;92633.88;;;27.88;46.20
10718;BME280;13513;42.700;23.124;2022-08-16T06:22:16;92637.02;;;27.52;47.36
10718;BME280;13513;42.700;23.124;2022-08-16T06:24:47;92644.02;;;28.01;47.51
10718;BME280;13513;42.700;23.124;2022-08-16T06:27:18;92642.62;;;28.52;45.01
10718;BME280;13513;42.700;23.124;2022-08-16T06:29:48;92641.70;;;28.54;44.22
10718;BME280;13513;42.700;23.124;2022-08-16T06:32:19;92639.27;;;28.84;44.97
10718;BME280;13513;42.700;23.124;2022-08-16T06:34:50;92628.98;;;28.97;42.58
10718;BME280;13513;42.700;23.124;2022-08-16T06:37:21;92632.55;;;29.56;42.75
10718;BME280;13513;42.700;23.124;2022-08-16T06:39:52;92635.64;;;29.84;42.11
10718;BME280;13513;42.700;23.124;2022-08-16T06:42:23;92634.73;;;29.90;41.13
10718;BME280;13513;42.700;23.124;2022-08-16T06:44:53;92626.95;;;30.08;40.98
10718;BME280;13513;42.700;23.124;2022-08-16T06:47:23;92624.30;;;30.72;40.38
10718;BME280;13513;42.700;23.124;2022-08-16T06:49:54;92632.73;;;31.27;38.83
10718;BME280;13513;42.700;23.124;2022-08-16T06:52:25;92627.76;;;31.43;36.42
10718;BME280;13513;42.700;23.124;2022-08-16T06:54:56;92625.59;;;31.16;37.08
10718;BME280;13513;42.700;23.124;2022-08-16T06:57:27;92624.97;;;31.09;38.64
10718;BME280;13513;42.700;23.124;2022-08-16T06:59:58;92619.88;;;31.65;39.07
10718;BME280;13513;42.700;23.124;2022-08-16T07:02:29;92616.75;;;32.11;36.91
10718;BME280;13513;42.700;23.124;2022-08-16T07:04:59;92616.53;;;31.66;36.86
10718;BME280;13513;42.700;23.124;2022-08-16T07:07:29;92619.22;;;31.52;37.09
10718;BME280;13513;42.700;23.124;2022-08-16T07:10:01;92617.69;;;31.99;37.72
10718;BME280;13513;42.700;23.124;2022-08-16T07:12:32;92624.65;;;31.82;34.54
10718;BME280;13513;42.700;23.124;2022-08-16T07:15:04;92620.66;;;31.32;35.60
10718;BME280;13513;42.700;23.124;2022-08-16T07:17:36;92620.38;;;31.20;35.37
10718;BME280;13513;42.700;23.124;2022-08-16T07:20:09;92609.97;;;31.13;36.69
10718;BME280;13513;42.700;23.124;2022-08-16T07:22:39;92604.16;;;31.48;37.65
10718;BME280;13513;42.700;23.124;2022-08-16T07:25:12;92594.08;;;32.11;35.50
10718;BME280;13513;42.700;23.124;2022-08-16T07:27:43;92595.27;;;32.20;34.57
10718;BME280;13513;42.700;23.124;2022-08-16T07:30:15;92598.60;;;32.27;35.02
10718;BME280;13513;42.700;23.124;2022-08-16T07:32:46;92617.88;;;32.00;34.63
10718;BME280;13513;42.700;23.124;2022-08-16T07:35:18;92612.34;;;32.30;35.79
10718;BME280;13513;42.700;23.124;2022-08-16T07:37:49;92613.72;;;32.41;33.83
10718;BME280;13513;42.700;23.124;2022-08-16T07:40:20;92616.45;;;32.51;33.43
10718;BME280;13513;42.700;23.124;2022-08-16T07:42:50;92615.47;;;32.53;35.28
10718;BME280;13513;42.700;23.124;2022-08-16T07:45:21;92618.25;;;32.95;34.53
10718;BME280;13513;42.700;23.124;2022-08-16T07:47:51;92616.97;;;33.74;32.84
10718;BME280;13513;42.700;23.124;2022-08-16T07:50:22;92613.22;;;34.29;31.43
10718;BME280;13513;42.700;23.124;2022-08-16T07:52:53;92616.96;;;34.60;31.74
10718;BME280;13513;42.700;23.124;2022-08-16T07:55:24;92613.95;;;35.20;31.91
10718;BME280;13513;42.700;23.124;2022-08-16T07:57:55;92623.74;;;35.65;30.23
10718;BME280;13513;42.700;23.124;2022-08-16T08:00:26;92619.39;;;36.35;30.54
10718;BME280;13513;42.700;23.124;2022-08-16T08:02:57;92621.30;;;36.83;30.76
10718;BME280;13513;42.700;23.124;2022-08-16T08:05:29;92623.56;;;37.49;27.87
10718;BME280;13513;42.700;23.124;2022-08-16T08:08:00;92627.65;;;37.95;27.86
10718;BME280;13513;42.700;23.124;2022-08-16T08:10:30;92628.22;;;38.45;27.65
10718;BME280;13513;42.700;23.124;2022-08-16T08:13:00;92624.11;;;38.89;27.34
10718;BME280;13513;42.700;23.124;2022-08-16T08:15:32;92631.75;;;39.17;25.88
10718;BME280;13513;42.700;23.124;2022-08-16T08:18:02;92628.55;;;38.94;26.97
10718;BME280;13513;42.700;23.124;2022-08-16T08:20:33;92630.87;;;38.13;25.42
10718;BME280;13513;42.700;23.124;2022-08-16T08:23:04;92627.30;;;38.05;25.72
10718;BME280;13513;42.700;23.124;2022-08-16T08:25:35;92630.54;;;38.19;25.71
10718;BME280;13513;42.700;23.124;2022-08-16T08:28:06;92629.44;;;38.25;26.51
10718;BME280;13513;42.700;23.124;2022-08-16T08:30:37;92633.91;;;38.58;26.33
10718;BME280;13513;42.700;23.124;2022-08-16T08:33:08;92643.79;;;38.91;25.33
10718;BME280;13513;42.700;23.124;2022-08-16T08:35:39;92641.89;;;38.33;26.69
10718;BME280;13513;42.700;23.124;2022-08-16T08:38:10;92642.23;;;38.27;26.41
10718;BME280;13513;42.700;23.124;2022-08-16T08:40:41;92644.50;;;38.01;26.38
10718;BME280;13513;42.700;23.124;2022-08-16T08:43:12;92636.59;;;38.42;27.46
10718;BME280;13513;42.700;23.124;2022-08-16T08:45:43;92634.63;;;39.37;25.84
10718;BME280;13513;42.700;23.124;2022-08-16T08:48:15;92636.55;;;40.30;25.41
10718;BME280;13513;42.700;23.124;2022-08-16T08:50:45;92640.73;;;40.63;24.55
10718;BME280;13513;42.700;23.124;2022-08-16T08:53:17;92636.77;;;41.09;24.51
10718;BME280;13513;42.700;23.124;2022-08-16T08:55:48;92647.52;;;41.87;21.96
10718;BME280;13513;42.700;23.124;2022-08-16T08:58:19;92644.25;;;41.84;21.77
10718;BME280;13513;42.700;23.124;2022-08-16T09:00:50;92637.09;;;40.66;24.03
10718;BME280;13513;42.700;23.124;2022-08-16T09:03:20;92627.44;;;39.48;25.50
10718;BME280;13513;42.700;23.124;2022-08-16T09:05:50;92637.89;;;39.65;25.42
10718;BME280;13513;42.700;23.124;2022-08-16T09:08:21;92637.55;;;40.56;25.57
10718;BME280;13513;42.700;23.124;2022-08-16T09:10:53;92642.20;;;41.50;23.00
10718;BME280;13513;42.700;23.124;2022-08-16T09:13:25;92646.26;;;40.83;24.05
10718;BME280;13513;42.700;23.124;2022-08-16T09:15:55;92643.61;;;39.49;25.06
10718;BME280;13513;42.700;23.124;2022-08-16T09:18:25;92629.14;;;38.94;24.87
10718;BME280;13513;42.700;23.124;2022-08-16T09:20:57;92631.97;;;40.44;25.30
10718;BME280;13513;42.700;23.124;2022-08-16T09:23:29;92644.95;;;41.92;22.97
10718;BME280;13513;42.700;23.124;2022-08-16T09:25:59;92645.44;;;43.38;22.34
10718;BME280;13513;42.700;23.124;2022-08-16T09:28:30;92643.64;;;44.56;20.75
10718;BME280;13513;42.700;23.124;2022-08-16T09:31:02;92643.61;;;44.02;21.52
10718;BME280;13513;42.700;23.124;2022-08-16T09:33:33;92638.06;;;44.42;20.24
10718;BME280;13513;42.700;23.124;2022-08-16T09:36:04;92642.93;;;42.70;21.06
10718;BME280;13513;42.700;23.124;2022-08-16T09:38:36;92631.75;;;41.71;22.55
10718;BME280;13513;42.700;23.124;2022-08-16T09:41:07;92630.09;;;39.76;24.89
10718;BME280;13513;42.700;23.124;2022-08-16T09:43:38;92624.80;;;37.99;26.41
10718;BME280;13513;42.700;23.124;2022-08-16T09:46:08;92625.98;;;37.24;27.72
10718;BME280;13513;42.700;23.124;2022-08-16T09:48:41;92625.88;;;36.03;28.73
10718;BME280;13513;42.700;23.124;2022-08-16T09:51:13;92627.48;;;35.45;31.75
10718;BME280;13513;42.700;23.124;2022-08-16T09:53:42;92626.77;;;35.12;32.49
10718;BME280;13513;42.700;23.124;2022-08-16T09:56:30;92625.05;;;34.84;32.26
10718;BME280;13513;42.700;23.124;2022-08-16T09:59:03;92627.88;;;34.99;32.51
10718;BME280;13513;42.700;23.124;2022-08-16T10:01:33;92625.37;;;34.93;31.26
10718;BME280;13513;42.700;23.124;2022-08-16T10:04:04;92627.21;;;34.13;32.23
10718;BME280;13513;42.700;23.124;2022-08-16T10:06:36;92618.32;;;33.84;32.66
10718;BME280;13513;42.700;23.124;2022-08-16T10:09:08;92618.38;;;33.60;32.03
10718;BME280;13513;42.700;23.124;2022-08-16T10:11:40;92611.22;;;32.87;32.14
10718;BME280;13513;42.700;23.124;2022-08-16T10:14:26;92613.27;;;32.28;34.63
10718;BME280;13513;42.700;23.124;2022-08-16T10:17:00;92617.22;;;32.38;34.44
10718;BME280;13513;42.700;23.124;2022-08-16T10:19:34;92624.08;;;32.55;36.39
10718;BME280;13513;42.700;23.124;2022-08-16T10:22:04;92625.51;;;32.87;34.79
10718;BME280;13513;42.700;23.124;2022-08-16T10:24:35;92625.50;;;32.90;34.26
10718;BME280;13513;42.700;23.124;2022-08-16T10:27:06;92626.85;;;32.94;35.79
10718;BME280;13513;42.700;23.124;2022-08-16T10:29:38;92626.87;;;32.97;35.55
10718;BME280;13513;42.700;23.124;2022-08-16T10:32:08;92623.72;;;33.23;31.61
10718;BME280;13513;42.700;23.124;2022-08-16T10:34:39;92618.08;;;32.91;31.02
10718;BME280;13513;42.700;23.124;2022-08-16T10:37:10;92618.08;;;32.91;31.02
10718;BME280;13513;42.700;23.124;2022-08-16T10:39:40;92614.55;;;32.90;33.61
10718;BME280;13513;42.700;23.124;2022-08-16T10:42:12;92620.22;;;32.88;32.96
10718;BME280;13513;42.700;23.124;2022-08-16T10:44:42;92615.31;;;33.15;32.32
10718;BME280;13513;42.700;23.124;2022-08-16T10:47:14;92625.88;;;33.06;33.03
10718;BME280;13513;42.700;23.124;2022-08-16T10:49:44;92623.52;;;33.12;31.98
10718;BME280;13513;42.700;23.124;2022-08-16T10:52:15;92611.39;;;33.16;35.83
10718;BME280;13513;42.700;23.124;2022-08-16T10:54:45;92615.51;;;33.09;34.09
10718;BME280;13513;42.700;23.124;2022-08-16T10:57:16;92605.25;;;32.26;33.62
10718;BME280;13513;42.700;23.124;2022-08-16T10:59:49;92598.57;;;32.06;34.97
10718;BME280;13513;42.700;23.124;2022-08-16T11:02:21;92593.18;;;32.34;37.27
10718;BME280;13513;42.700;23.124;2022-08-16T11:04:52;92605.91;;;32.67;35.68
10718;BME280;13513;42.700;23.124;2022-08-16T11:07:23;92609.61;;;32.51;34.32
10718;BME280;13513;42.700;23.124;2022-08-16T11:09:54;92600.02;;;32.34;34.37
10718;BME280;13513;42.700;23.124;2022-08-16T11:12:24;92609.03;;;32.45;34.73
10718;BME280;13513;42.700;23.124;2022-08-16T11:14:55;92607.24;;;32.32;33.56
10718;BME280;13513;42.700;23.124;2022-08-16T11:17:26;92603.97;;;32.57;33.00
10718;BME280;13513;42.700;23.124;2022-08-16T11:19:58;92610.01;;;32.78;32.92
10718;BME280;13513;42.700;23.124;2022-08-16T11:22:28;92614.94;;;32.85;31.88
10718;BME280;13513;42.700;23.124;2022-08-16T11:24:58;92606.51;;;32.77;35.21
10718;BME280;13513;42.700;23.124;2022-08-16T11:27:29;92595.35;;;33.15;34.55
10718;BME280;13513;42.700;23.124;2022-08-16T11:30:00;92610.42;;;33.01;31.67
10718;BME280;13513;42.700;23.124;2022-08-16T11:32:30;92610.42;;;33.01;31.67
10718;BME280;13513;42.700;23.124;2022-08-16T11:35:06;92603.00;;;32.87;34.51
10718;BME280;13513;42.700;23.124;2022-08-16T11:37:39;92607.31;;;33.06;33.59
10718;BME280;13513;42.700;23.124;2022-08-16T11:40:11;92593.36;;;33.29;32.98
10718;BME280;13513;42.700;23.124;2022-08-16T11:42:42;92593.80;;;33.00;31.82
10718;BME280;13513;42.700;23.124;2022-08-16T11:45:14;92590.63;;;32.35;31.11
10718;BME280;13513;42.700;23.124;2022-08-16T11:47:44;92589.00;;;32.09;33.77
10718;BME280;13513;42.700;23.124;2022-08-16T11:50:14;92583.20;;;32.32;34.74
10718;BME280;13513;42.700;23.124;2022-08-16T11:52:45;92591.44;;;32.74;33.04
10718;BME280;13513;42.700;23.124;2022-08-16T11:55:14;92584.22;;;33.07;33.10
10718;BME280;13513;42.700;23.124;2022-08-16T11:57:45;92596.11;;;33.22;31.31
10718;BME280;13513;42.700;23.124;2022-08-16T12:03:12;92575.16;;;33.45;29.86
10718;BME280;13513;42.700;23.124;2022-08-16T12:05:43;92575.56;;;33.22;30.61
10718;BME280;13513;42.700;23.124;2022-08-16T12:08:14;92575.56;;;33.22;30.61
10718;BME280;13513;42.700;23.124;2022-08-16T12:10:44;92573.99;;;33.28;31.09
10718;BME280;13513;42.700;23.124;2022-08-16T12:13:14;92567.33;;;33.44;28.66
10718;BME280;13513;42.700;23.124;2022-08-16T12:15:45;92581.18;;;33.59;28.43
10718;BME280;13513;42.700;23.124;2022-08-16T12:18:17;92559.77;;;33.04;28.70
10718;BME280;13513;42.700;23.124;2022-08-16T12:20:47;92559.77;;;33.04;28.70
10718;BME280;13513;42.700;23.124;2022-08-16T12:23:19;92569.92;;;33.11;28.13
10718;BME280;13513;42.700;23.124;2022-08-16T12:25:48;92571.71;;;32.71;27.18
10718;BME280;13513;42.700;23.124;2022-08-16T12:28:19;92567.56;;;32.36;26.96
10718;BME280;13513;42.700;23.124;2022-08-16T12:30:49;92565.36;;;32.11;28.44
10718;BME280;13513;42.700;23.124;2022-08-16T12:33:20;92563.61;;;32.16;29.72
10718;BME280;13513;42.700;23.124;2022-08-16T12:35:51;92557.04;;;32.45;29.55
10718;BME280;13513;42.700;23.124;2022-08-16T12:38:21;92560.55;;;32.52;27.25
10718;BME280;13513;42.700;23.124;2022-08-16T12:40:53;92561.92;;;32.59;29.14
10718;BME280;13513;42.700;23.124;2022-08-16T12:43:24;92563.70;;;32.89;28.13
10718;BME280;13513;42.700;23.124;2022-08-16T12:45:56;92553.91;;;32.92;26.79
10718;BME280;13513;42.700;23.124;2022-08-16T12:48:28;92565.25;;;33.04;27.49
10718;BME280;13513;42.700;23.124;2022-08-16T12:51:17;92561.55;;;32.92;27.15
10718;BME280;13513;42.700;23.124;2022-08-16T12:53:47;92568.95;;;33.02;27.07
10718;BME280;13513;42.700;23.124;2022-08-16T12:56:19;92568.95;;;33.02;27.07
10718;BME280;13513;42.700;23.124;2022-08-16T12:58:49;92561.71;;;32.72;26.20
10718;BME280;13513;42.700;23.124;2022-08-16T13:01:25;92562.70;;;32.56;25.90
10718;BME280;13513;42.700;23.124;2022-08-16T13:03:56;92555.08;;;32.87;25.96
10718;BME280;13513;42.700;23.124;2022-08-16T13:06:28;92541.20;;;32.86;27.28
10718;BME280;13513;42.700;23.124;2022-08-16T13:08:58;92541.20;;;32.86;27.28
10718;BME280;13513;42.700;23.124;2022-08-16T13:11:35;92551.95;;;32.82;25.75
10718;BME280;13513;42.700;23.124;2022-08-16T13:14:05;92552.94;;;32.69;25.54
10718;BME280;13513;42.700;23.124;2022-08-16T13:16:36;92549.81;;;32.71;26.39